sensor_id;sensor_type;location;lat;lon;timestamp;pressure;altitude;pressure_sealevel;temperature;humidity
55301;BME280;58302;51.446;-2.000;2022-07-24T00:02:15;100789.31;;;17.08;88.05
55301;BME280;58302;51.446;-2.000;2022-07-24T00:04:41;100796.47;;;17.09;87.70
55301;BME280;58302;51.446;-2.000;2022-07-24T00:07:07;100788.72;;;17.11;86.98
55301;BME280;58302;51.446;-2.000;2022-07-24T00:09:33;100778.34;;;17.08;87.03
55301;BME280;58302;51.446;-2.000;2022-07-24T00:11:59;100777.75;;;17.11;87.02
55301;BME280;58302;51.446;-2.000;2022-07-24T00:14:25;100781.81;;;17.14;86.61
55301;BME280;58302;51.446;-2.000;2022-07-24T00:16:51;100778.56;;;17.12;86.55
55301;BME280;58302;51.446;-2.000;2022-07-24T00:19:17;100777.75;;;17.11;86.40
55301;BME280;58302;51.446;-2.000;2022-07-24T00:21:43;100774.19;;;17.11;86.29
55301;BME280;58302;51.446;-2.000;2022-07-24T00:24:09;100783.47;;;17.15;86.26
55301;BME280;58302;51.446;-2.000;2022-07-24T00:26:35;100770.31;;;17.12;86.33
55301;BME280;58302;51.446;-2.000;2022-07-24T00:29:02;100768.38;;;17.12;86.38
55301;BME280;58302;51.446;-2.000;2022-07-24T00:31:29;100763.50;;;17.09;86.52
55301;BME280;58302;51.446;-2.000;2022-07-24T00:33:55;100765.13;;;17.10;86.63
55301;BME280;58302;51.446;-2.000;2022-07-24T00:36:21;100759.66;;;17.10;86.68
55301;BME280;58302;51.446;-2.000;2022-07-24T00:38:47;100757.22;;;17.09;86.13
55301;BME280;58302;51.446;-2.000;2022-07-24T00:41:13;100744.78;;;17.11;86.63
55301;BME280;58302;51.446;-2.000;2022-07-24T00:46:34;100737.69;;;17.10;86.47
55301;BME280;58302;51.446;-2.000;2022-07-24T00:49:01;100745.09;;;17.10;86.57
55301;BME280;58302;51.446;-2.000;2022-07-24T00:51:28;100734.63;;;17.12;86.55
55301;BME280;58302;51.446;-2.000;2022-07-24T00:53:55;100737.16;;;17.08;88.03
55301;BME280;58302;51.446;-2.000;2022-07-24T00:56:21;100734.59;;;16.98;89.55
55301;BME280;58302;51.446;-2.000;2022-07-24T00:58:47;100741.16;;;16.83;90.69
55301;BME280;58302;51.446;-2.000;2022-07-24T01:01:14;100737.19;;;16.76;91.43
55301;BME280;58302;51.446;-2.000;2022-07-24T01:03:41;100732.81;;;16.70;91.58
55301;BME280;58302;51.446;-2.000;2022-07-24T01:06:10;100737.00;;;16.67;92.44
55301;BME280;58302;51.446;-2.000;2022-07-24T01:08:36;100737.31;;;16.66;92.60
55301;BME280;58302;51.446;-2.000;2022-07-24T01:11:03;100736.78;;;16.64;92.29
55301;BME280;58302;51.446;-2.000;2022-07-24T01:13:30;100735.06;;;16.68;92.17
55301;BME280;58302;51.446;-2.000;2022-07-24T01:15:57;100736.78;;;16.64;93.62
55301;BME280;58302;51.446;-2.000;2022-07-24T01:18:24;100724.63;;;16.51;94.03
55301;BME280;58302;51.446;-2.000;2022-07-24T01:20:50;100736.19;;;16.48;94.62
55301;BME280;58302;51.446;-2.000;2022-07-24T01:23:16;100743.09;;;16.45;95.19
55301;BME280;58302;51.446;-2.000;2022-07-24T01:25:42;100733.56;;;16.43;95.13
55301;BME280;58302;51.446;-2.000;2022-07-24T01:28:08;100730.56;;;16.39;96.31
55301;BME280;58302;51.446;-2.000;2022-07-24T01:30:34;100732.56;;;16.33;97.05
55301;BME280;58302;51.446;-2.000;2022-07-24T01:33:01;100728.56;;;16.26;97.36
55301;BME280;58302;51.446;-2.000;2022-07-24T01:35:27;100721.75;;;16.23;98.11
55301;BME280;58302;51.446;-2.000;2022-07-24T01:37:53;100722.63;;;16.19;98.62
55301;BME280;58302;51.446;-2.000;2022-07-24T01:40:22;100723.75;;;16.18;99.04
55301;BME280;58302;51.446;-2.000;2022-07-24T01:42:48;100723.25;;;16.16;99.00
55301;BME280;58302;51.446;-2.000;2022-07-24T01:45:15;100713.66;;;16.13;99.49
55301;BME280;58302;51.446;-2.000;2022-07-24T01:47:42;100713.16;;;16.11;100.00
55301;BME280;58302;51.446;-2.000;2022-07-24T01:50:10;100706.88;;;16.11;100.00
55301;BME280;58302;51.446;-2.000;2022-07-24T01:52:36;100709.06;;;16.08;100.00
55301;BME280;58302;51.446;-2.000;2022-07-24T01:55:03;100706.88;;;16.11;100.00
55301;BME280;58302;51.446;-2.000;2022-07-24T01:57:30;100706.56;;;16.12;100.00
55301;BME280;58302;51.446;-2.000;2022-07-24T01:59:58;100717.22;;;16.14;100.00
55301;BME280;58302;51.446;-2.000;2022-07-24T02:02:24;100716.63;;;16.17;100.00
55301;BME280;58302;51.446;-2.000;2022-07-24T02:04:50;100718.56;;;16.16;100.00
55301;BME280;58302;51.446;-2.000;2022-07-24T02:07:16;100713.91;;;16.17;100.00
55301;BME280;58302;51.446;-2.000;2022-07-24T02:09:42;100717.16;;;16.19;100.00
55301;BME280;58302;51.446;-2.000;2022-07-24T02:12:08;100707.22;;;16.23;100.00
55301;BME280;58302;51.446;-2.000;2022-07-24T02:14:34;100711.59;;;16.24;100.00
55301;BME280;58302;51.446;-2.000;2022-07-24T02:17:00;100708.84;;;16.24;100.00
55301;BME280;58302;51.446;-2.000;2022-07-24T02:19:26;100710.41;;;16.30;100.00
55301;BME280;58302;51.446;-2.000;2022-07-24T02:21:52;100703.81;;;16.31;99.84
55301;BME280;58302;51.446;-2.000;2022-07-24T02:24:18;100706.53;;;16.31;100.00
55301;BME280;58302;51.446;-2.000;2022-07-24T02:26:44;100710.41;;;16.30;100.00
55301;BME280;58302;51.446;-2.000;2022-07-24T02:29:10;100715.88;;;16.30;100.00
55301;BME280;58302;51.446;-2.000;2022-07-24T02:31:36;100713.16;;;16.30;100.00
55301;BME280;58302;51.446;-2.000;2022-07-24T02:34:03;100710.41;;;16.30;100.00
55301;BME280;58302;51.446;-2.000;2022-07-24T02:36:29;100705.72;;;16.30;100.00
55301;BME280;58302;51.446;-2.000;2022-07-24T02:38:55;100700.47;;;16.34;100.00
55301;BME280;58302;51.446;-2.000;2022-07-24T02:41:21;100699.66;;;16.33;100.00
55301;BME280;58302;51.446;-2.000;2022-07-24T02:43:47;100698.84;;;16.33;100.00
55301;BME280;58302;51.446;-2.000;2022-07-24T02:46:13;100696.09;;;16.33;100.00
55301;BME280;58302;51.446;-2.000;2022-07-24T02:48:39;100700.25;;;16.30;100.00
55301;BME280;58302;51.446;-2.000;2022-07-24T02:51:05;100702.47;;;16.28;100.00
55301;BME280;58302;51.446;-2.000;2022-07-24T02:53:31;100689.97;;;16.22;100.00
55301;BME280;58302;51.446;-2.000;2022-07-24T02:55:57;100697.44;;;16.17;100.00
55301;BME280;58302;51.446;-2.000;2022-07-24T02:58:24;100696.91;;;16.15;100.00
55301;BME280;58302;51.446;-2.000;2022-07-24T03:00:50;100698.84;;;16.14;100.00
55301;BME280;58302;51.446;-2.000;2022-07-24T03:03:16;100684.94;;;16.11;100.00
55301;BME280;58302;51.446;-2.000;2022-07-24T03:05:42;100680.75;;;16.13;100.00
55301;BME280;58302;51.446;-2.000;2022-07-24T03:08:08;100676.91;;;16.14;100.00
55301;BME280;58302;51.446;-2.000;2022-07-24T03:10:34;100684.00;;;16.15;100.00
55301;BME280;58302;51.446;-2.000;2022-07-24T03:13:00;100673.88;;;16.16;100.00
55301;BME280;58302;51.446;-2.000;2022-07-24T03:15:26;100677.13;;;16.18;100.00
55301;BME280;58302;51.446;-2.000;2022-07-24T03:17:54;100667.78;;;16.19;100.00
55301;BME280;58302;51.446;-2.000;2022-07-24T03:20:22;100667.78;;;16.19;100.00
55301;BME280;58302;51.446;-2.000;2022-07-24T03:22:49;100663.66;;;16.21;100.00
55301;BME280;58302;51.446;-2.000;2022-07-24T03:25:16;100660.22;;;16.29;100.00
55301;BME280;58302;51.446;-2.000;2022-07-24T03:27:42;100650.59;;;16.32;100.00
55301;BME280;58302;51.446;-2.000;2022-07-24T03:30:09;100653.34;;;16.32;100.00
55301;BME280;58302;51.446;-2.000;2022-07-24T03:32:36;100652.41;;;16.37;100.00
55301;BME280;58302;51.446;-2.000;2022-07-24T03:35:02;100658.72;;;16.37;100.00
55301;BME280;58302;51.446;-2.000;2022-07-24T03:37:28;100650.22;;;16.39;100.00
55301;BME280;58302;51.446;-2.000;2022-07-24T03:39:54;100655.69;;;16.39;100.00
55301;BME280;58302;51.446;-2.000;2022-07-24T03:42:20;100651.59;;;16.36;100.00
55301;BME280;58302;51.446;-2.000;2022-07-24T03:44:47;100647.75;;;16.37;100.00
55301;BME280;58302;51.446;-2.000;2022-07-24T03:47:13;100654.06;;;16.38;100.00
55301;BME280;58302;51.446;-2.000;2022-07-24T03:49:39;100650.41;;;16.42;100.00
55301;BME280;58302;51.446;-2.000;2022-07-24T03:52:05;100658.38;;;16.44;100.00
55301;BME280;58302;51.446;-2.000;2022-07-24T03:54:32;100653.47;;;16.41;100.00
55301;BME280;58302;51.446;-2.000;2022-07-24T03:56:58;100647.75;;;16.37;100.00
55301;BME280;58302;51.446;-2.000;2022-07-24T03:59:24;100648.06;;;16.36;100.00
55301;BME280;58302;51.446;-2.000;2022-07-24T04:01:50;100653.13;;;16.28;100.00
55301;BME280;58302;51.446;-2.000;2022-07-24T04:04:16;100650.69;;;16.27;100.00
55301;BME280;58302;51.446;-2.000;2022-07-24T04:06:42;100652.88;;;16.25;100.00
55301;BME280;58302;51.446;-2.000;2022-07-24T04:09:09;100652.69;;;16.21;100.00
55301;BME280;58302;51.446;-2.000;2022-07-24T04:11:35;100659.25;;;16.20;100.00
55301;BME280;58302;51.446;-2.000;2022-07-24T04:14:01;100649.41;;;16.19;100.00
55301;BME280;58302;51.446;-2.000;2022-07-24T04:16:27;100652.97;;;16.20;100.00
55301;BME280;58302;51.446;-2.000;2022-07-24T04:18:53;100637.31;;;16.20;100.00
55301;BME280;58302;51.446;-2.000;2022-07-24T04:21:19;100643.03;;;16.24;100.00
55301;BME280;58302;51.446;-2.000;2022-07-24T04:23:45;100637.53;;;16.24;100.00
55301;BME280;58302;51.446;-2.000;2022-07-24T04:26:11;100636.75;;;16.23;100.00
55301;BME280;58302;51.446;-2.000;2022-07-24T04:28:38;100635.63;;;16.24;100.00
55301;BME280;58302;51.446;-2.000;2022-07-24T04:31:04;100629.81;;;16.26;100.00
55301;BME280;58302;51.446;-2.000;2022-07-24T04:33:30;100633.91;;;16.28;100.00
55301;BME280;58302;51.446;-2.000;2022-07-24T04:35:56;100640.22;;;16.29;100.00
55301;BME280;58302;51.446;-2.000;2022-07-24T04:38:22;100636.34;;;16.30;100.00
55301;BME280;58302;51.446;-2.000;2022-07-24T04:40:48;100637.47;;;16.29;100.00
55301;BME280;58302;51.446;-2.000;2022-07-24T04:43:15;100641.53;;;16.31;100.00
55301;BME280;58302;51.446;-2.000;2022-07-24T04:45:40;100634.97;;;16.32;100.00
55301;BME280;58302;51.446;-2.000;2022-07-24T04:48:06;100629.97;;;16.34;100.00
55301;BME280;58302;51.446;-2.000;2022-07-24T04:50:32;100633.53;;;16.35;100.00
55301;BME280;58302;51.446;-2.000;2022-07-24T04:52:59;100633.53;;;16.35;100.00
55301;BME280;58302;51.446;-2.000;2022-07-24T04:55:25;100626.09;;;16.36;100.00
55301;BME280;58302;51.446;-2.000;2022-07-24T04:57:51;100622.78;;;16.39;100.00
55301;BME280;58302;51.446;-2.000;2022-07-24T05:00:17;100638.94;;;16.40;100.00
55301;BME280;58302;51.446;-2.000;2022-07-24T05:02:43;100631.22;;;16.42;100.00
55301;BME280;58302;51.446;-2.000;2022-07-24T05:05:10;100632.84;;;16.43;100.00
55301;BME280;58302;51.446;-2.000;2022-07-24T05:07:36;100628.69;;;16.46;100.00
55301;BME280;58302;51.446;-2.000;2022-07-24T05:10:03;100625.63;;;16.47;100.00
55301;BME280;58302;51.446;-2.000;2022-07-24T05:12:29;100627.56;;;16.47;100.00
55301;BME280;58302;51.446;-2.000;2022-07-24T05:14:55;100626.44;;;16.48;100.00
55301;BME280;58302;51.446;-2.000;2022-07-24T05:17:21;100630.53;;;16.50;100.00
55301;BME280;58302;51.446;-2.000;2022-07-24T05:19:47;100628.59;;;16.51;100.00
55301;BME280;58302;51.446;-2.000;2022-07-24T05:22:14;100626.09;;;16.54;100.00
55301;BME280;58302;51.446;-2.000;2022-07-24T05:24:40;100629.34;;;16.56;100.00
55301;BME280;58302;51.446;-2.000;2022-07-24T05:27:06;100633.69;;;16.57;100.00
55301;BME280;58302;51.446;-2.000;2022-07-24T05:29:32;100627.09;;;16.58;100.00
55301;BME280;58302;51.446;-2.000;2022-07-24T05:31:58;100631.75;;;16.58;100.00
55301;BME280;58302;51.446;-2.000;2022-07-24T05:34:24;100634.50;;;16.58;100.00
55301;BME280;58302;51.446;-2.000;2022-07-24T05:36:50;100634.72;;;16.62;100.00
55301;BME280;58302;51.446;-2.000;2022-07-24T05:39:16;100639.09;;;16.63;100.00
55301;BME280;58302;51.446;-2.000;2022-07-24T05:41:42;100627.00;;;16.64;100.00
55301;BME280;58302;51.446;-2.000;2022-07-24T05:44:08;100630.28;;;16.66;100.00
55301;BME280;58302;51.446;-2.000;2022-07-24T05:46:35;100628.84;;;16.68;100.00
55301;BME280;58302;51.446;-2.000;2022-07-24T05:49:01;100624.47;;;16.67;100.00
55301;BME280;58302;51.446;-2.000;2022-07-24T05:51:27;100617.56;;;16.70;100.00
55301;BME280;58302;51.446;-2.000;2022-07-24T05:53:53;100620.56;;;16.73;100.00
55301;BME280;58302;51.446;-2.000;2022-07-24T05:56:19;100617.50;;;16.75;100.00
55301;BME280;58302;51.446;-2.000;2022-07-24T05:58:45;100625.06;;;16.83;100.00
55301;BME280;58302;51.446;-2.000;2022-07-24T06:01:11;100623.13;;;16.83;100.00
55301;BME280;58302;51.446;-2.000;2022-07-24T06:03:37;100619.47;;;16.88;100.00
55301;BME280;58302;51.446;-2.000;2022-07-24T06:06:04;100612.34;;;16.87;100.00
55301;BME280;58302;51.446;-2.000;2022-07-24T06:08:31;100612.75;;;16.94;100.00
55301;BME280;58302;51.446;-2.000;2022-07-24T06:10:57;100613.78;;;16.98;99.77
55301;BME280;58302;51.446;-2.000;2022-07-24T06:13:23;100607.69;;;17.01;99.60
55301;BME280;58302;51.446;-2.000;2022-07-24T06:15:49;100618.06;;;17.04;99.10
55301;BME280;58302;51.446;-2.000;2022-07-24T06:18:18;100623.03;;;17.02;99.54
55301;BME280;58302;51.446;-2.000;2022-07-24T06:20:44;100618.06;;;17.04;99.73
55301;BME280;58302;51.446;-2.000;2022-07-24T06:23:10;100616.84;;;17.10;99.52
55301;BME280;58302;51.446;-2.000;2022-07-24T06:25:36;100611.75;;;17.18;98.72
55301;BME280;58302;51.446;-2.000;2022-07-24T06:28:02;100619.66;;;17.19;98.28
55301;BME280;58302;51.446;-2.000;2022-07-24T06:30:28;100610.84;;;17.22;98.16
55301;BME280;58302;51.446;-2.000;2022-07-24T06:32:56;100605.66;;;17.21;98.09
55301;BME280;58302;51.446;-2.000;2022-07-24T06:35:25;100601.47;;;17.23;97.88
55301;BME280;58302;51.446;-2.000;2022-07-24T06:37:51;100602.28;;;17.24;98.20
55301;BME280;58302;51.446;-2.000;2022-07-24T06:40:18;100600.06;;;17.26;97.99
55301;BME280;58302;51.446;-2.000;2022-07-24T06:42:45;100624.16;;;17.29;97.67
55301;BME280;58302;51.446;-2.000;2022-07-24T06:45:12;100622.53;;;17.28;97.98
55301;BME280;58302;51.446;-2.000;2022-07-24T06:47:39;100619.28;;;17.26;97.62
55301;BME280;58302;51.446;-2.000;2022-07-24T06:50:05;100617.63;;;17.25;97.92
55301;BME280;58302;51.446;-2.000;2022-07-24T06:52:35;100614.59;;;17.26;97.52
55301;BME280;58302;51.446;-2.000;2022-07-24T06:55:01;100606.84;;;17.28;97.42
55301;BME280;58302;51.446;-2.000;2022-07-24T06:57:27;100599.53;;;17.37;97.43
55301;BME280;58302;51.446;-2.000;2022-07-24T06:59:54;100604.00;;;17.47;96.38
55301;BME280;58302;51.446;-2.000;2022-07-24T07:02:21;100605.81;;;17.52;96.42
55301;BME280;58302;51.446;-2.000;2022-07-24T07:04:47;100611.91;;;17.62;95.95
55301;BME280;58302;51.446;-2.000;2022-07-24T07:07:13;100598.16;;;17.76;94.41
55301;BME280;58302;51.446;-2.000;2022-07-24T07:09:42;100604.03;;;17.83;93.86
55301;BME280;58302;51.446;-2.000;2022-07-24T07:12:08;100608.00;;;17.91;93.45
55301;BME280;58302;51.446;-2.000;2022-07-24T07:14:34;100611.47;;;17.97;92.69
55301;BME280;58302;51.446;-2.000;2022-07-24T07:17:00;100587.63;;;17.92;92.65
55301;BME280;58302;51.446;-2.000;2022-07-24T07:19:26;100599.75;;;17.91;93.05
55301;BME280;58302;51.446;-2.000;2022-07-24T07:21:52;100599.56;;;17.87;93.09
55301;BME280;58302;51.446;-2.000;2022-07-24T07:24:18;100593.84;;;17.84;93.47
55301;BME280;58302;51.446;-2.000;2022-07-24T07:26:45;100597.50;;;17.93;92.61
55301;BME280;58302;51.446;-2.000;2022-07-24T07:29:11;100590.25;;;17.97;92.27
55301;BME280;58302;51.446;-2.000;2022-07-24T07:31:37;100593.13;;;17.92;92.70
55301;BME280;58302;51.446;-2.000;2022-07-24T07:34:03;100597.50;;;17.93;92.43
55301;BME280;58302;51.446;-2.000;2022-07-24T07:36:29;100596.06;;;17.96;92.33
55301;BME280;58302;51.446;-2.000;2022-07-24T07:38:55;100588.31;;;17.98;91.61
55301;BME280;58302;51.446;-2.000;2022-07-24T07:41:24;100588.00;;;17.99;91.38
55301;BME280;58302;51.446;-2.000;2022-07-24T07:43:50;100582.88;;;18.06;90.84
55301;BME280;58302;51.446;-2.000;2022-07-24T07:46:16;100586.16;;;18.08;90.73
55301;BME280;58302;51.446;-2.000;2022-07-24T07:48:42;100586.44;;;18.07;90.52
55301;BME280;58302;51.446;-2.000;2022-07-24T07:51:08;100593.06;;;18.06;90.84
55301;BME280;58302;51.446;-2.000;2022-07-24T07:53:34;100584.69;;;18.11;90.69
55301;BME280;58302;51.446;-2.000;2022-07-24T07:56:00;100588.13;;;18.16;90.01
55301;BME280;58302;51.446;-2.000;2022-07-24T07:58:27;100598.53;;;18.20;90.17
55301;BME280;58302;51.446;-2.000;2022-07-24T08:00:54;100587.81;;;18.18;90.60
55301;BME280;58302;51.446;-2.000;2022-07-24T08:03:20;100595.38;;;18.35;89.55
55301;BME280;58302;51.446;-2.000;2022-07-24T08:05:46;100595.66;;;18.25;89.60
55301;BME280;58302;51.446;-2.000;2022-07-24T08:08:12;100589.50;;;18.28;89.27
55301;BME280;58302;51.446;-2.000;2022-07-24T08:10:38;100582.38;;;18.27;89.56
55301;BME280;58302;51.446;-2.000;2022-07-24T08:13:04;100587.13;;;18.35;89.52
55301;BME280;58302;51.446;-2.000;2022-07-24T08:15:30;100592.00;;;18.38;89.19
55301;BME280;58302;51.446;-2.000;2022-07-24T08:17:57;100584.06;;;18.36;88.37
55301;BME280;58302;51.446;-2.000;2022-07-24T08:20:25;100583.69;;;18.29;89.19
55301;BME280;58302;51.446;-2.000;2022-07-24T08:22:52;100577.88;;;18.31;88.96
55301;BME280;58302;51.446;-2.000;2022-07-24T08:25:18;100572.94;;;18.41;88.85
55301;BME280;58302;51.446;-2.000;2022-07-24T08:27:45;100573.63;;;18.47;88.36
55301;BME280;58302;51.446;-2.000;2022-07-24T08:30:11;100582.53;;;18.75;86.75
55301;BME280;58302;51.446;-2.000;2022-07-24T08:32:37;100571.88;;;18.82;86.32
55301;BME280;58302;51.446;-2.000;2022-07-24T08:35:05;100579.44;;;18.77;87.07
55301;BME280;58302;51.446;-2.000;2022-07-24T08:37:38;100575.28;;;18.79;86.50
55301;BME280;58302;51.446;-2.000;2022-07-24T08:40:06;100581.41;;;18.76;86.61
55301;BME280;58302;51.446;-2.000;2022-07-24T08:42:32;100572.06;;;18.86;86.36
55301;BME280;58302;51.446;-2.000;2022-07-24T08:44:59;100567.34;;;18.86;85.82
55301;BME280;58302;51.446;-2.000;2022-07-24T08:47:25;100572.88;;;18.95;85.81
55301;BME280;58302;51.446;-2.000;2022-07-24T08:49:55;100574.19;;;18.98;85.43
55301;BME280;58302;51.446;-2.000;2022-07-24T08:52:23;100571.44;;;18.98;85.70
55301;BME280;58302;51.446;-2.000;2022-07-24T08:54:50;100573.53;;;19.01;84.70
55301;BME280;58302;51.446;-2.000;2022-07-24T08:57:16;100566.47;;;19.08;84.81
55301;BME280;58302;51.446;-2.000;2022-07-24T08:59:42;100565.53;;;19.30;84.31
55301;BME280;58302;51.446;-2.000;2022-07-24T09:02:09;100555.19;;;19.53;82.18
55301;BME280;58302;51.446;-2.000;2022-07-24T09:04:42;100549.84;;;19.48;82.08
55301;BME280;58302;51.446;-2.000;2022-07-24T09:07:18;100562.47;;;19.49;82.13
55301;BME280;58302;51.446;-2.000;2022-07-24T09:10:04;100547.63;;;19.59;81.67
55301;BME280;58302;51.446;-2.000;2022-07-24T09:12:35;100556.06;;;19.62;81.58
55301;BME280;58302;51.446;-2.000;2022-07-24T09:15:05;100558.81;;;19.88;80.64
55301;BME280;58302;51.446;-2.000;2022-07-24T09:17:35;100558.28;;;20.21;79.56
55301;BME280;58302;51.446;-2.000;2022-07-24T09:20:02;100560.88;;;20.35;78.48
55301;BME280;58302;51.446;-2.000;2022-07-24T09:27:35;100551.84;;;21.11;75.07
55301;BME280;58302;51.446;-2.000;2022-07-24T09:30:03;100559.72;;;21.29;73.53
55301;BME280;58302;51.446;-2.000;2022-07-24T09:32:31;100552.16;;;21.09;74.54
55301;BME280;58302;51.446;-2.000;2022-07-24T09:35:00;100547.91;;;20.82;75.05
55301;BME280;58302;51.446;-2.000;2022-07-24T09:37:27;100550.47;;;20.87;75.26
55301;BME280;58302;51.446;-2.000;2022-07-24T09:40:05;100554.91;;;21.09;74.37
55301;BME280;58302;51.446;-2.000;2022-07-24T09:42:32;100555.25;;;21.08;73.92
55301;BME280;58302;51.446;-2.000;2022-07-24T09:45:06;100556.88;;;21.09;74.12
55301;BME280;58302;51.446;-2.000;2022-07-24T09:47:34;100558.00;;;21.16;73.63
55301;BME280;58302;51.446;-2.000;2022-07-24T09:50:15;100550.47;;;20.87;74.32
55301;BME280;58302;51.446;-2.000;2022-07-24T09:52:43;100553.91;;;20.84;75.15
55301;BME280;58302;51.446;-2.000;2022-07-24T09:55:22;100559.56;;;20.49;76.61
55301;BME280;58302;51.446;-2.000;2022-07-24T09:57:49;100562.81;;;20.51;76.85
55301;BME280;58302;51.446;-2.000;2022-07-24T10:00:15;100557.94;;;20.40;76.87
55301;BME280;58302;51.446;-2.000;2022-07-24T10:02:44;100562.53;;;20.18;77.74
55301;BME280;58302;51.446;-2.000;2022-07-24T10:05:11;100559.94;;;19.96;78.54
55301;BME280;58302;51.446;-2.000;2022-07-24T10:07:40;100560.09;;;19.82;79.52
55301;BME280;58302;51.446;-2.000;2022-07-24T10:10:07;100557.84;;;19.93;79.70
55301;BME280;58302;51.446;-2.000;2022-07-24T10:12:33;100564.00;;;19.98;79.15
55301;BME280;58302;51.446;-2.000;2022-07-24T10:15:01;100559.47;;;20.11;78.40
55301;BME280;58302;51.446;-2.000;2022-07-24T10:20:41;100558.97;;;20.18;78.13
55301;BME280;58302;51.446;-2.000;2022-07-24T10:23:08;100559.13;;;20.13;77.66
55301;BME280;58302;51.446;-2.000;2022-07-24T10:26:06;100545.00;;;19.88;78.56
55301;BME280;58302;51.446;-2.000;2022-07-24T10:28:41;100559.63;;;19.71;80.03
55301;BME280;58302;51.446;-2.000;2022-07-24T10:31:09;100560.91;;;19.83;79.23
55301;BME280;58302;51.446;-2.000;2022-07-24T10:33:37;100551.03;;;19.90;79.32
55301;BME280;58302;51.446;-2.000;2022-07-24T10:36:16;100552.31;;;19.93;79.19
55301;BME280;58302;51.446;-2.000;2022-07-24T10:38:56;100554.41;;;20.13;78.34
55301;BME280;58302;51.446;-2.000;2022-07-24T10:41:25;100547.44;;;20.07;78.61
55301;BME280;58302;51.446;-2.000;2022-07-24T10:44:14;100552.78;;;20.04;78.22
55301;BME280;58302;51.446;-2.000;2022-07-24T10:47:10;100551.81;;;20.08;78.37
55301;BME280;58302;51.446;-2.000;2022-07-24T10:49:48;100538.66;;;20.22;78.21
55301;BME280;58302;51.446;-2.000;2022-07-24T10:52:24;100538.97;;;20.76;76.07
55301;BME280;58302;51.446;-2.000;2022-07-24T10:57:59;100550.00;;;21.15;73.35
55301;BME280;58302;51.446;-2.000;2022-07-24T11:00:37;100543.03;;;21.17;73.56
55301;BME280;58302;51.446;-2.000;2022-07-24T11:03:05;100541.63;;;21.02;74.17
55301;BME280;58302;51.446;-2.000;2022-07-24T11:05:34;100539.25;;;21.22;73.03
55301;BME280;58302;51.446;-2.000;2022-07-24T11:10:46;100529.34;;;21.71;71.25
55301;BME280;58302;51.446;-2.000;2022-07-24T11:27:04;100517.09;;;21.01;73.42
55301;BME280;58302;51.446;-2.000;2022-07-24T11:29:33;100519.09;;;20.92;74.58
55301;BME280;58302;51.446;-2.000;2022-07-24T11:32:09;100525.19;;;21.06;74.02
55301;BME280;58302;51.446;-2.000;2022-07-24T11:34:37;100519.78;;;21.10;72.96
55301;BME280;58302;51.446;-2.000;2022-07-24T11:37:04;100526.53;;;21.00;73.61
55301;BME280;58302;51.446;-2.000;2022-07-24T11:39:37;100519.53;;;21.02;73.76
55301;BME280;58302;51.446;-2.000;2022-07-24T11:42:08;100508.69;;;21.18;73.04
55301;BME280;58302;51.446;-2.000;2022-07-24T11:44:35;100517.94;;;21.22;72.41
55301;BME280;58302;51.446;-2.000;2022-07-24T11:47:13;100520.00;;;21.34;71.80
55301;BME280;58302;51.446;-2.000;2022-07-24T11:49:47;100513.06;;;21.19;72.62
55301;BME280;58302;51.446;-2.000;2022-07-24T11:52:18;100496.94;;;21.30;72.98
55301;BME280;58302;51.446;-2.000;2022-07-24T11:54:46;100500.72;;;21.67;70.99
55301;BME280;58302;51.446;-2.000;2022-07-24T11:57:32;100498.22;;;22.07;69.03
55301;BME280;58302;51.446;-2.000;2022-07-24T12:00:00;100499.72;;;22.05;69.12
55301;BME280;58302;51.446;-2.000;2022-07-24T12:02:27;100488.06;;;22.32;68.40
55301;BME280;58302;51.446;-2.000;2022-07-24T12:04:53;100490.81;;;21.99;68.53
55301;BME280;58302;51.446;-2.000;2022-07-24T12:07:25;100485.34;;;22.12;68.41
55301;BME280;58302;51.446;-2.000;2022-07-24T12:12:25;100488.22;;;23.09;64.36
55301;BME280;58302;51.446;-2.000;2022-07-24T12:14:59;100476.88;;;22.78;65.22
55301;BME280;58302;51.446;-2.000;2022-07-24T12:17:26;100463.03;;;22.78;65.16
55301;BME280;58302;51.446;-2.000;2022-07-24T12:19:54;100477.47;;;22.71;65.59
55301;BME280;58302;51.446;-2.000;2022-07-24T12:22:22;100463.41;;;22.88;64.98
55301;BME280;58302;51.446;-2.000;2022-07-24T12:24:49;100454.13;;;23.09;63.64
55301;BME280;58302;51.446;-2.000;2022-07-24T12:27:37;100471.25;;;22.99;64.65
55301;BME280;58302;51.446;-2.000;2022-07-24T12:30:37;100474.53;;;23.57;62.13
55301;BME280;58302;51.446;-2.000;2022-07-24T12:33:06;100456.59;;;23.95;59.91
55301;BME280;58302;51.446;-2.000;2022-07-24T12:38:26;100458.53;;;23.78;60.04
55301;BME280;58302;51.446;-2.000;2022-07-24T12:41:09;100451.66;;;23.88;58.98
55301;BME280;58302;51.446;-2.000;2022-07-24T12:43:48;100465.03;;;23.98;59.32
55301;BME280;58302;51.446;-2.000;2022-07-24T12:46:15;100453.78;;;23.63;59.89
55301;BME280;58302;51.446;-2.000;2022-07-24T12:51:56;100449.06;;;23.39;61.74
55301;BME280;58302;51.446;-2.000;2022-07-24T12:54:27;100429.50;;;24.04;59.23
55301;BME280;58302;51.446;-2.000;2022-07-24T12:56:59;100431.16;;;24.36;58.00
55301;BME280;58302;51.446;-2.000;2022-07-24T12:59:34;100432.66;;;24.18;58.48
55301;BME280;58302;51.446;-2.000;2022-07-24T13:02:07;100417.41;;;24.28;57.77
55301;BME280;58302;51.446;-2.000;2022-07-24T13:04:43;100418.44;;;24.86;56.20
55301;BME280;58302;51.446;-2.000;2022-07-24T13:07:11;100408.78;;;25.15;54.56
55301;BME280;58302;51.446;-2.000;2022-07-24T13:09:37;100413.78;;;24.90;54.63
55301;BME280;58302;51.446;-2.000;2022-07-24T13:12:04;100413.13;;;24.30;55.97
55301;BME280;58302;51.446;-2.000;2022-07-24T13:14:30;100412.53;;;24.72;55.04
55301;BME280;58302;51.446;-2.000;2022-07-24T13:17:02;100400.06;;;24.47;55.68
55301;BME280;58302;51.446;-2.000;2022-07-24T13:19:29;100396.28;;;24.90;54.19